Notre-Dame-Du-Lac, Canada
Current Conditions -  °F | °C
As of 1:53 AM on Wednesday 26 Nov 2014 (Local Time) from KFVE Reporting Station
Broken Clouds Broken Clouds  
Wind Chill: 26°   Ceiling: 5500
Heat Index: 36°   Visibility: 10mi
Dew Point: 24°   Wind: 18mph
Humidity: 62%   Direction: 260°W
Pressure: 29.91"   Gusts: 33mph
Location:  47.6°N, 68.8°W
Report Text: KFVE 260653Z AUTO 26016G29KT 10SM SCT045 BKN055 02/M04 A2991 RMK AO2 PK WND 26029/0653 SLP134 T00221044
Loading
Personal Weather Stations






























Interactive Weather Map New forecast layout! Learn more

10-Day Weather Forecast

Advertisements
Track Severe Weather on mobile